sensor_id;sensor_type;location;lat;lon;timestamp;pressure;altitude;pressure_sealevel;temperature;humidity
11017;BME280;54687;50.800;6.772;2023-03-30T00:00:26;60994.38;;;-144.06;52.44
11017;BME280;54687;50.800;6.772;2023-03-30T00:02:53;60988.09;;;-144.06;52.49
11017;BME280;54687;50.800;6.772;2023-03-30T00:05:20;60998.59;;;-144.06;52.42
11017;BME280;54687;50.800;6.772;2023-03-30T00:07:48;60986.00;;;-144.06;52.41
11017;BME280;54687;50.800;6.772;2023-03-30T00:10:17;60983.91;;;-144.06;52.31
11017;BME280;54687;50.800;6.772;2023-03-30T00:12:44;60967.13;;;-144.06;52.35
11017;BME280;54687;50.800;6.772;2023-03-30T00:15:15;60994.38;;;-144.06;52.22
11017;BME280;54687;50.800;6.772;2023-03-30T00:17:43;61023.75;;;-144.06;52.35
11017;BME280;54687;50.800;6.772;2023-03-30T00:20:11;60994.38;;;-144.06;52.26
11017;BME280;54687;50.800;6.772;2023-03-30T00:22:38;60979.72;;;-144.06;52.36
11017;BME280;54687;50.800;6.772;2023-03-30T00:25:06;61051.00;;;-144.06;52.61
11017;BME280;54687;50.800;6.772;2023-03-30T00:27:34;60994.38;;;-144.06;52.57
11017;BME280;54687;50.800;6.772;2023-03-30T00:30:00;60979.72;;;-144.06;52.51
11017;BME280;54687;50.800;6.772;2023-03-30T00:32:28;61021.63;;;-144.06;52.62
11017;BME280;54687;50.800;6.772;2023-03-30T00:34:55;61042.59;;;-144.06;52.72
11017;BME280;54687;50.800;6.772;2023-03-30T00:37:21;61002.78;;;-144.06;52.66
11017;BME280;54687;50.800;6.772;2023-03-30T00:39:50;60988.09;;;-144.06;52.82
11017;BME280;54687;50.800;6.772;2023-03-30T00:42:18;60986.00;;;-144.06;52.78
11017;BME280;54687;50.800;6.772;2023-03-30T00:45:06;61017.44;;;-144.06;52.70
11017;BME280;54687;50.800;6.772;2023-03-30T00:47:37;60983.91;;;-144.06;52.33
11017;BME280;54687;50.800;6.772;2023-03-30T00:50:05;60992.28;;;-144.06;52.44
11017;BME280;54687;50.800;6.772;2023-03-30T00:52:34;61002.78;;;-144.06;52.26
11017;BME280;54687;50.800;6.772;2023-03-30T00:55:02;61019.53;;;-144.06;52.17
11017;BME280;54687;50.800;6.772;2023-03-30T00:57:29;61000.69;;;-144.06;52.35
11017;BME280;54687;50.800;6.772;2023-03-30T00:59:58;60990.19;;;-144.06;51.92
11017;BME280;54687;50.800;6.772;2023-03-30T01:02:27;61013.25;;;-144.06;51.77
11017;BME280;54687;50.800;6.772;2023-03-30T01:04:57;60979.72;;;-144.06;51.46
11017;BME280;54687;50.800;6.772;2023-03-30T01:07:23;61013.25;;;-144.06;51.43
11017;BME280;54687;50.800;6.772;2023-03-30T01:09:50;60975.53;;;-144.06;51.35
11017;BME280;54687;50.800;6.772;2023-03-30T01:12:18;60996.50;;;-144.06;51.34
11017;BME280;54687;50.800;6.772;2023-03-30T01:14:45;61006.97;;;-144.06;51.04
11017;BME280;54687;50.800;6.772;2023-03-30T01:17:22;60962.94;;;-144.06;50.91
11017;BME280;54687;50.800;6.772;2023-03-30T01:20:43;60979.72;;;-144.06;50.82
11017;BME280;54687;50.800;6.772;2023-03-30T01:26:36;60941.97;;;-144.06;50.62
11017;BME280;54687;50.800;6.772;2023-03-30T01:29:14;60950.38;;;-144.06;50.47
11017;BME280;54687;50.800;6.772;2023-03-30T01:31:58;60967.13;;;-144.06;50.41
11017;BME280;54687;50.800;6.772;2023-03-30T01:34:43;60956.66;;;-144.06;50.38
11017;BME280;54687;50.800;6.772;2023-03-30T01:37:53;61013.25;;;-144.06;50.30
11017;BME280;54687;50.800;6.772;2023-03-30T01:40:28;60996.50;;;-144.06;50.06
11017;BME280;54687;50.800;6.772;2023-03-30T01:43:05;60954.56;;;-144.06;50.22
11017;BME280;54687;50.800;6.772;2023-03-30T01:45:41;60979.72;;;-144.06;50.58
11017;BME280;54687;50.800;6.772;2023-03-30T01:48:12;60983.91;;;-144.06;50.42
11017;BME280;54687;50.800;6.772;2023-03-30T01:50:42;60988.09;;;-144.06;50.51
11017;BME280;54687;50.800;6.772;2023-03-30T01:53:13;60975.53;;;-144.06;50.42
11017;BME280;54687;50.800;6.772;2023-03-30T01:55:45;61002.78;;;-144.06;50.19
11017;BME280;54687;50.800;6.772;2023-03-30T01:58:17;60971.34;;;-144.06;50.01
11017;BME280;54687;50.800;6.772;2023-03-30T02:00:47;60950.38;;;-144.06;50.00
11017;BME280;54687;50.800;6.772;2023-03-30T02:03:18;60958.75;;;-144.06;50.01
11017;BME280;54687;50.800;6.772;2023-03-30T02:05:49;60981.81;;;-144.06;49.80
11017;BME280;54687;50.800;6.772;2023-03-30T02:08:19;60975.53;;;-144.06;49.82
11017;BME280;54687;50.800;6.772;2023-03-30T02:10:50;60967.13;;;-144.06;49.62
11017;BME280;54687;50.800;6.772;2023-03-30T02:13:18;60950.38;;;-144.06;49.69
11017;BME280;54687;50.800;6.772;2023-03-30T02:15:49;60956.66;;;-144.06;49.64
11017;BME280;54687;50.800;6.772;2023-03-30T02:18:17;60975.53;;;-144.06;49.47
11017;BME280;54687;50.800;6.772;2023-03-30T02:20:44;60962.94;;;-144.06;49.52
11017;BME280;54687;50.800;6.772;2023-03-30T02:23:12;60933.59;;;-144.06;49.55
11017;BME280;54687;50.800;6.772;2023-03-30T02:25:39;60975.53;;;-144.06;49.72
11017;BME280;54687;50.800;6.772;2023-03-30T02:28:08;60962.94;;;-144.06;49.62
11017;BME280;54687;50.800;6.772;2023-03-30T02:30:38;60992.28;;;-144.06;49.42
11017;BME280;54687;50.800;6.772;2023-03-30T02:33:07;60975.53;;;-144.06;49.28
11017;BME280;54687;50.800;6.772;2023-03-30T02:35:49;60946.19;;;-144.06;49.60
11017;BME280;54687;50.800;6.772;2023-03-30T02:38:39;60960.84;;;-144.06;50.03
11017;BME280;54687;50.800;6.772;2023-03-30T02:41:18;60994.38;;;-144.06;50.32
11017;BME280;54687;50.800;6.772;2023-03-30T02:43:54;60967.13;;;-144.06;50.28
11017;BME280;54687;50.800;6.772;2023-03-30T02:46:35;60965.03;;;-144.06;50.44
11017;BME280;54687;50.800;6.772;2023-03-30T02:49:12;60990.19;;;-144.06;50.54
11017;BME280;54687;50.800;6.772;2023-03-30T02:51:44;61000.69;;;-144.06;50.55
11017;BME280;54687;50.800;6.772;2023-03-30T02:54:22;60950.38;;;-144.06;50.69
11017;BME280;54687;50.800;6.772;2023-03-30T02:56:55;60977.63;;;-144.06;50.95
11017;BME280;54687;50.800;6.772;2023-03-30T02:59:29;60981.81;;;-144.06;51.16
11017;BME280;54687;50.800;6.772;2023-03-30T03:01:59;60960.84;;;-144.06;51.46
11017;BME280;54687;50.800;6.772;2023-03-30T03:04:29;61000.69;;;-144.06;51.85
11017;BME280;54687;50.800;6.772;2023-03-30T03:06:58;60962.94;;;-144.06;52.18
11017;BME280;54687;50.800;6.772;2023-03-30T03:09:27;60958.75;;;-144.06;52.49
11017;BME280;54687;50.800;6.772;2023-03-30T03:11:55;61017.44;;;-144.06;52.56
11017;BME280;54687;50.800;6.772;2023-03-30T03:14:21;60965.03;;;-144.06;52.54
11017;BME280;54687;50.800;6.772;2023-03-30T03:16:52;60954.56;;;-144.06;52.51
11017;BME280;54687;50.800;6.772;2023-03-30T03:19:18;60975.53;;;-144.06;52.77
11017;BME280;54687;50.800;6.772;2023-03-30T03:21:45;60975.53;;;-144.06;52.83
11017;BME280;54687;50.800;6.772;2023-03-30T03:24:12;60994.38;;;-144.06;52.90
11017;BME280;54687;50.800;6.772;2023-03-30T03:26:41;60992.28;;;-144.06;53.00
11017;BME280;54687;50.800;6.772;2023-03-30T03:29:08;60962.94;;;-144.06;52.90
11017;BME280;54687;50.800;6.772;2023-03-30T03:31:34;61004.88;;;-144.06;53.02
11017;BME280;54687;50.800;6.772;2023-03-30T03:34:02;60996.50;;;-144.06;52.98
11017;BME280;54687;50.800;6.772;2023-03-30T03:36:29;60986.00;;;-144.06;53.12
11017;BME280;54687;50.800;6.772;2023-03-30T03:38:56;61015.34;;;-144.06;53.15
11017;BME280;54687;50.800;6.772;2023-03-30T03:41:23;61015.34;;;-144.06;53.21
11017;BME280;54687;50.800;6.772;2023-03-30T03:43:51;60998.59;;;-144.06;53.32
11017;BME280;54687;50.800;6.772;2023-03-30T03:46:18;60983.91;;;-144.06;53.22
11017;BME280;54687;50.800;6.772;2023-03-30T03:48:44;60996.50;;;-144.06;53.33
11017;BME280;54687;50.800;6.772;2023-03-30T03:51:13;60983.91;;;-144.06;53.29
11017;BME280;54687;50.800;6.772;2023-03-30T03:53:39;61032.13;;;-144.06;53.47
11017;BME280;54687;50.800;6.772;2023-03-30T03:56:06;60992.28;;;-144.06;53.40
11017;BME280;54687;50.800;6.772;2023-03-30T03:58:33;60983.91;;;-144.06;53.51
11017;BME280;54687;50.800;6.772;2023-03-30T04:01:00;60986.00;;;-144.06;53.29
11017;BME280;54687;50.800;6.772;2023-03-30T04:03:27;61019.53;;;-144.06;53.39
11017;BME280;54687;50.800;6.772;2023-03-30T04:05:57;61011.16;;;-144.06;53.42
11017;BME280;54687;50.800;6.772;2023-03-30T04:08:26;60996.50;;;-144.06;53.44
11017;BME280;54687;50.800;6.772;2023-03-30T04:10:53;60990.19;;;-144.06;53.32
11017;BME280;54687;50.800;6.772;2023-03-30T04:13:19;60992.28;;;-144.06;53.41
11017;BME280;54687;50.800;6.772;2023-03-30T04:15:46;61009.06;;;-144.06;53.51
11017;BME280;54687;50.800;6.772;2023-03-30T04:18:13;60975.53;;;-144.06;53.71
11017;BME280;54687;50.800;6.772;2023-03-30T04:20:40;60979.72;;;-144.06;53.76
11017;BME280;54687;50.800;6.772;2023-03-30T04:23:07;61019.53;;;-144.06;53.95
11017;BME280;54687;50.800;6.772;2023-03-30T04:25:35;60975.53;;;-144.06;53.85
11017;BME280;54687;50.800;6.772;2023-03-30T04:28:04;61009.06;;;-144.06;53.96
11017;BME280;54687;50.800;6.772;2023-03-30T04:30:31;61040.50;;;-144.06;53.84
11017;BME280;54687;50.800;6.772;2023-03-30T04:32:57;60958.75;;;-144.06;53.81
11017;BME280;54687;50.800;6.772;2023-03-30T04:35:30;60979.72;;;-144.06;53.76
11017;BME280;54687;50.800;6.772;2023-03-30T04:37:57;60954.56;;;-144.06;53.83
11017;BME280;54687;50.800;6.772;2023-03-30T04:40:25;60967.13;;;-144.06;53.80
11017;BME280;54687;50.800;6.772;2023-03-30T04:42:53;60965.03;;;-144.06;53.82
11017;BME280;54687;50.800;6.772;2023-03-30T04:45:26;60948.28;;;-144.06;53.86
11017;BME280;54687;50.800;6.772;2023-03-30T04:47:53;61021.63;;;-144.06;53.81
11017;BME280;54687;50.800;6.772;2023-03-30T04:50:19;60996.50;;;-144.06;53.94
11017;BME280;54687;50.800;6.772;2023-03-30T04:52:46;60971.34;;;-144.06;53.61
11017;BME280;54687;50.800;6.772;2023-03-30T04:55:12;60975.53;;;-144.06;53.80
11017;BME280;54687;50.800;6.772;2023-03-30T04:57:39;60992.28;;;-144.06;53.83
11017;BME280;54687;50.800;6.772;2023-03-30T05:00:08;60954.56;;;-144.06;53.87
11017;BME280;54687;50.800;6.772;2023-03-30T05:02:36;60983.91;;;-144.06;53.80
11017;BME280;54687;50.800;6.772;2023-03-30T05:05:03;61006.97;;;-144.06;53.73
11017;BME280;54687;50.800;6.772;2023-03-30T05:07:29;60994.38;;;-144.06;53.71
11017;BME280;54687;50.800;6.772;2023-03-30T05:09:56;61017.44;;;-144.06;53.53
11017;BME280;54687;50.800;6.772;2023-03-30T05:12:22;60967.13;;;-144.06;53.78
11017;BME280;54687;50.800;6.772;2023-03-30T05:14:49;61030.03;;;-144.06;53.66
11017;BME280;54687;50.800;6.772;2023-03-30T05:17:17;61000.69;;;-144.06;53.57
11017;BME280;54687;50.800;6.772;2023-03-30T05:19:43;60996.50;;;-144.06;53.58
11017;BME280;54687;50.800;6.772;2023-03-30T05:22:10;60979.72;;;-144.06;53.63
11017;BME280;54687;50.800;6.772;2023-03-30T05:24:37;60954.56;;;-144.06;53.61
11017;BME280;54687;50.800;6.772;2023-03-30T05:27:03;60979.72;;;-144.06;53.63
11017;BME280;54687;50.800;6.772;2023-03-30T05:29:32;60983.91;;;-144.06;53.54
11017;BME280;54687;50.800;6.772;2023-03-30T05:31:58;61009.06;;;-144.06;53.53
11017;BME280;54687;50.800;6.772;2023-03-30T05:34:27;60977.63;;;-144.06;53.57
11017;BME280;54687;50.800;6.772;2023-03-30T05:36:53;61015.34;;;-144.06;53.57
11017;BME280;54687;50.800;6.772;2023-03-30T05:39:20;60971.34;;;-144.06;53.47
11017;BME280;54687;50.800;6.772;2023-03-30T05:41:47;60998.59;;;-144.06;53.44
11017;BME280;54687;50.800;6.772;2023-03-30T05:44:14;60960.84;;;-144.06;53.49
11017;BME280;54687;50.800;6.772;2023-03-30T05:46:40;60962.94;;;-144.06;53.53
11017;BME280;54687;50.800;6.772;2023-03-30T05:49:07;60950.38;;;-144.06;53.42
11017;BME280;54687;50.800;6.772;2023-03-30T05:51:35;60992.28;;;-144.06;53.53
11017;BME280;54687;50.800;6.772;2023-03-30T05:54:01;60944.09;;;-144.06;53.48
11017;BME280;54687;50.800;6.772;2023-03-30T05:56:28;61006.97;;;-144.06;53.61
11017;BME280;54687;50.800;6.772;2023-03-30T05:58:55;60960.84;;;-144.06;53.65
11017;BME280;54687;50.800;6.772;2023-03-30T06:01:22;60994.38;;;-144.06;53.67
11017;BME280;54687;50.800;6.772;2023-03-30T06:03:49;60977.63;;;-144.06;53.78
11017;BME280;54687;50.800;6.772;2023-03-30T06:06:15;60962.94;;;-144.06;53.81
11017;BME280;54687;50.800;6.772;2023-03-30T06:08:45;60954.56;;;-144.06;53.79
11017;BME280;54687;50.800;6.772;2023-03-30T06:11:14;60977.63;;;-144.06;53.92
11017;BME280;54687;50.800;6.772;2023-03-30T06:13:40;61002.78;;;-144.06;53.83
11017;BME280;54687;50.800;6.772;2023-03-30T06:16:08;61004.88;;;-144.06;53.91
11017;BME280;54687;50.800;6.772;2023-03-30T06:18:36;60967.13;;;-144.06;53.92
11017;BME280;54687;50.800;6.772;2023-03-30T06:21:03;60967.13;;;-144.06;53.98
11017;BME280;54687;50.800;6.772;2023-03-30T06:23:35;60979.72;;;-144.06;54.06
11017;BME280;54687;50.800;6.772;2023-03-30T06:26:03;60975.53;;;-144.06;54.04
11017;BME280;54687;50.800;6.772;2023-03-30T06:28:31;60937.78;;;-144.06;54.06
11017;BME280;54687;50.800;6.772;2023-03-30T06:30:59;60937.78;;;-144.06;54.08
11017;BME280;54687;50.800;6.772;2023-03-30T06:33:27;60958.75;;;-144.06;54.02
11017;BME280;54687;50.800;6.772;2023-03-30T06:35:55;60958.75;;;-144.06;53.90
11017;BME280;54687;50.800;6.772;2023-03-30T06:38:22;60958.75;;;-144.06;53.65
11017;BME280;54687;50.800;6.772;2023-03-30T06:40:49;60956.66;;;-144.06;53.52
11017;BME280;54687;50.800;6.772;2023-03-30T06:43:18;60958.75;;;-144.06;53.34
11017;BME280;54687;50.800;6.772;2023-03-30T06:45:49;60956.66;;;-144.06;53.19
11017;BME280;54687;50.800;6.772;2023-03-30T06:48:16;60979.72;;;-144.06;52.90
11017;BME280;54687;50.800;6.772;2023-03-30T06:50:44;60933.59;;;-144.06;52.84
11017;BME280;54687;50.800;6.772;2023-03-30T06:53:11;60969.22;;;-144.06;52.75
11017;BME280;54687;50.800;6.772;2023-03-30T06:55:38;60983.91;;;-144.06;52.56
11017;BME280;54687;50.800;6.772;2023-03-30T06:58:05;60979.72;;;-144.06;52.50
11017;BME280;54687;50.800;6.772;2023-03-30T07:00:33;60950.38;;;-144.06;52.53
11017;BME280;54687;50.800;6.772;2023-03-30T07:02:59;60962.94;;;-144.06;52.30
11017;BME280;54687;50.800;6.772;2023-03-30T07:05:26;60954.56;;;-144.06;51.68
11017;BME280;54687;50.800;6.772;2023-03-30T07:07:54;60981.81;;;-144.06;51.43
11017;BME280;54687;50.800;6.772;2023-03-30T07:10:21;60918.94;;;-144.06;51.22
11017;BME280;54687;50.800;6.772;2023-03-30T07:12:48;60929.41;;;-144.06;50.84
11017;BME280;54687;50.800;6.772;2023-03-30T07:15:14;60874.91;;;-144.06;50.44
11017;BME280;54687;50.800;6.772;2023-03-30T07:17:42;60908.44;;;-144.06;50.01
11017;BME280;54687;50.800;6.772;2023-03-30T07:20:10;60912.63;;;-144.06;49.52
11017;BME280;54687;50.800;6.772;2023-03-30T07:22:39;60889.59;;;-144.06;49.00
11017;BME280;54687;50.800;6.772;2023-03-30T07:25:07;60923.13;;;-144.06;48.54
11017;BME280;54687;50.800;6.772;2023-03-30T07:27:33;60916.84;;;-144.06;48.81
11017;BME280;54687;50.800;6.772;2023-03-30T07:30:01;60883.28;;;-144.06;48.59
11017;BME280;54687;50.800;6.772;2023-03-30T07:32:27;60891.69;;;-144.06;48.57
11017;BME280;54687;50.800;6.772;2023-03-30T07:34:55;60929.41;;;-144.06;48.85
11017;BME280;54687;50.800;6.772;2023-03-30T07:37:22;60946.19;;;-144.06;48.83
11017;BME280;54687;50.800;6.772;2023-03-30T07:39:49;60895.88;;;-144.06;48.74
11017;BME280;54687;50.800;6.772;2023-03-30T07:42:15;60893.78;;;-144.06;48.81
11017;BME280;54687;50.800;6.772;2023-03-30T07:44:42;60910.53;;;-144.06;48.76
11017;BME280;54687;50.800;6.772;2023-03-30T07:47:08;60910.53;;;-144.06;47.82
11017;BME280;54687;50.800;6.772;2023-03-30T07:49:36;60895.88;;;-144.06;47.63
11017;BME280;54687;50.800;6.772;2023-03-30T07:52:04;60916.84;;;-144.06;47.34
11017;BME280;54687;50.800;6.772;2023-03-30T07:54:31;60887.47;;;-144.06;46.98
11017;BME280;54687;50.800;6.772;2023-03-30T07:56:58;60910.53;;;-144.06;47.08
11017;BME280;54687;50.800;6.772;2023-03-30T07:59:24;60912.63;;;-144.06;46.37
11017;BME280;54687;50.800;6.772;2023-03-30T08:01:51;60864.44;;;-144.06;46.38
11017;BME280;54687;50.800;6.772;2023-03-30T08:04:19;60893.78;;;-144.06;46.23
11017;BME280;54687;50.800;6.772;2023-03-30T08:06:46;60895.88;;;-144.06;45.89
11017;BME280;54687;50.800;6.772;2023-03-30T08:09:17;60870.72;;;-144.06;46.11
11017;BME280;54687;50.800;6.772;2023-03-30T08:11:44;60891.69;;;-144.06;45.62
11017;BME280;54687;50.800;6.772;2023-03-30T08:14:11;60853.94;;;-144.06;45.25
11017;BME280;54687;50.800;6.772;2023-03-30T08:16:37;60883.28;;;-144.06;45.26
11017;BME280;54687;50.800;6.772;2023-03-30T08:19:04;60921.03;;;-144.06;45.05
11017;BME280;54687;50.800;6.772;2023-03-30T08:21:31;60879.09;;;-144.06;44.98
11017;BME280;54687;50.800;6.772;2023-03-30T08:23:58;60891.69;;;-144.06;44.57
11017;BME280;54687;50.800;6.772;2023-03-30T08:26:26;60912.63;;;-144.06;44.99
11017;BME280;54687;50.800;6.772;2023-03-30T08:28:55;60877.00;;;-144.06;44.52
11017;BME280;54687;50.800;6.772;2023-03-30T08:31:22;60881.19;;;-144.06;44.37
11017;BME280;54687;50.800;6.772;2023-03-30T08:33:49;60860.25;;;-144.06;44.32
11017;BME280;54687;50.800;6.772;2023-03-30T08:36:15;60887.47;;;-144.06;43.78
11017;BME280;54687;50.800;6.772;2023-03-30T08:38:44;60870.72;;;-144.06;44.31
11017;BME280;54687;50.800;6.772;2023-03-30T08:41:35;60856.03;;;-144.06;44.17
11017;BME280;54687;50.800;6.772;2023-03-30T08:44:08;60853.94;;;-144.06;44.46
11017;BME280;54687;50.800;6.772;2023-03-30T08:46:41;60895.88;;;-144.06;44.99
11017;BME280;54687;50.800;6.772;2023-03-30T08:49:13;60870.72;;;-144.06;44.37
11017;BME280;54687;50.800;6.772;2023-03-30T08:51:41;60853.94;;;-144.06;43.26
11017;BME280;54687;50.800;6.772;2023-03-30T08:54:11;60843.47;;;-144.06;42.97
11017;BME280;54687;50.800;6.772;2023-03-30T08:56:44;60849.75;;;-144.06;41.90
11017;BME280;54687;50.800;6.772;2023-03-30T08:59:18;60828.78;;;-144.06;42.23
11017;BME280;54687;50.800;6.772;2023-03-30T09:01:51;60833.00;;;-144.06;41.67
11017;BME280;54687;50.800;6.772;2023-03-30T09:04:25;60803.66;;;-144.06;40.61
11017;BME280;54687;50.800;6.772;2023-03-30T09:06:55;60841.38;;;-144.06;41.04
11017;BME280;54687;50.800;6.772;2023-03-30T09:09:27;60826.69;;;-144.06;40.51
11017;BME280;54687;50.800;6.772;2023-03-30T09:12:00;60866.53;;;-144.06;40.58
11017;BME280;54687;50.800;6.772;2023-03-30T09:14:31;60812.03;;;-144.06;40.31
11017;BME280;54687;50.800;6.772;2023-03-30T09:17:03;60805.75;;;-144.06;40.35
11017;BME280;54687;50.800;6.772;2023-03-30T09:19:36;60841.38;;;-144.06;39.66
11017;BME280;54687;50.800;6.772;2023-03-30T09:22:06;60812.03;;;-144.06;39.97
11017;BME280;54687;50.800;6.772;2023-03-30T09:24:33;60833.00;;;-144.06;40.11
11017;BME280;54687;50.800;6.772;2023-03-30T09:27:04;60872.81;;;-144.06;40.70
11017;BME280;54687;50.800;6.772;2023-03-30T09:29:38;60828.78;;;-144.06;40.44
11017;BME280;54687;50.800;6.772;2023-03-30T09:32:12;60891.69;;;-144.06;40.92
11017;BME280;54687;50.800;6.772;2023-03-30T09:34:44;60866.53;;;-144.06;41.35
11017;BME280;54687;50.800;6.772;2023-03-30T09:37:12;60853.94;;;-144.06;42.08
11017;BME280;54687;50.800;6.772;2023-03-30T09:39:44;60870.72;;;-144.06;42.48
11017;BME280;54687;50.800;6.772;2023-03-30T09:42:20;60889.59;;;-144.06;45.33
11017;BME280;54687;50.800;6.772;2023-03-30T09:44:51;60921.03;;;-144.06;53.42
11017;BME280;54687;50.800;6.772;2023-03-30T09:47:22;60933.59;;;-144.06;58.08
11017;BME280;54687;50.800;6.772;2023-03-30T09:49:54;60971.34;;;-144.06;58.64
11017;BME280;54687;50.800;6.772;2023-03-30T09:52:23;60992.28;;;-144.06;61.39
11017;BME280;54687;50.800;6.772;2023-03-30T09:54:50;60975.53;;;-144.06;61.45
11017;BME280;54687;50.800;6.772;2023-03-30T09:57:27;61038.41;;;-144.06;62.14
11017;BME280;54687;50.800;6.772;2023-03-30T09:59:56;60939.88;;;-144.06;62.17
11017;BME280;54687;50.800;6.772;2023-03-30T10:02:24;60992.28;;;-144.06;62.29
11017;BME280;54687;50.800;6.772;2023-03-30T10:05:00;60971.34;;;-144.06;61.08
11017;BME280;54687;50.800;6.772;2023-03-30T10:07:31;61034.22;;;-144.06;61.19
11017;BME280;54687;50.800;6.772;2023-03-30T10:10:01;61000.69;;;-144.06;61.65
11017;BME280;54687;50.800;6.772;2023-03-30T10:12:39;60998.59;;;-144.06;60.41
11017;BME280;54687;50.800;6.772;2023-03-30T10:15:13;61015.34;;;-144.06;60.28
11017;BME280;54687;50.800;6.772;2023-03-30T10:17:41;60986.00;;;-144.06;59.79
11017;BME280;54687;50.800;6.772;2023-03-30T10:20:20;61009.06;;;-144.06;58.88
11017;BME280;54687;50.800;6.772;2023-03-30T10:22:51;61013.25;;;-144.06;58.22
11017;BME280;54687;50.800;6.772;2023-03-30T10:25:20;60996.50;;;-144.06;58.88
11017;BME280;54687;50.800;6.772;2023-03-30T10:27:50;61015.34;;;-144.06;59.35
11017;BME280;54687;50.800;6.772;2023-03-30T10:30:22;60975.53;;;-144.06;58.02
11017;BME280;54687;50.800;6.772;2023-03-30T10:32:51;61015.34;;;-144.06;56.96
11017;BME280;54687;50.800;6.772;2023-03-30T10:35:21;61015.34;;;-144.06;56.85
11017;BME280;54687;50.800;6.772;2023-03-30T10:37:50;60948.28;;;-144.06;56.45
11017;BME280;54687;50.800;6.772;2023-03-30T10:40:19;60979.72;;;-144.06;55.08
11017;BME280;54687;50.800;6.772;2023-03-30T10:42:52;60929.41;;;-144.06;55.13
11017;BME280;54687;50.800;6.772;2023-03-30T10:45:26;60946.19;;;-144.06;52.70
11017;BME280;54687;50.800;6.772;2023-03-30T10:48:04;60921.03;;;-144.06;53.28
11017;BME280;54687;50.800;6.772;2023-03-30T10:50:42;60946.19;;;-144.06;52.66
11017;BME280;54687;50.800;6.772;2023-03-30T10:53:24;60975.53;;;-144.06;52.87
11017;BME280;54687;50.800;6.772;2023-03-30T10:56:01;60962.94;;;-144.06;52.12
11017;BME280;54687;50.800;6.772;2023-03-30T10:58:43;60990.19;;;-144.06;52.20
11017;BME280;54687;50.800;6.772;2023-03-30T11:01:21;60916.84;;;-144.06;52.49
11017;BME280;54687;50.800;6.772;2023-03-30T11:03:55;60925.22;;;-144.06;53.30
11017;BME280;54687;50.800;6.772;2023-03-30T11:06:27;60983.91;;;-144.06;52.61
11017;BME280;54687;50.800;6.772;2023-03-30T11:09:00;60937.78;;;-144.06;52.21
11017;BME280;54687;50.800;6.772;2023-03-30T11:11:32;60925.22;;;-144.06;52.85
11017;BME280;54687;50.800;6.772;2023-03-30T11:14:06;60988.09;;;-144.06;51.81
11017;BME280;54687;50.800;6.772;2023-03-30T11:16:39;60937.78;;;-144.06;51.26
11017;BME280;54687;50.800;6.772;2023-03-30T11:19:13;60912.63;;;-144.06;51.09
11017;BME280;54687;50.800;6.772;2023-03-30T11:21:48;60912.63;;;-144.06;50.47
11017;BME280;54687;50.800;6.772;2023-03-30T11:24:22;60944.09;;;-144.06;50.34
11017;BME280;54687;50.800;6.772;2023-03-30T11:26:55;60921.03;;;-144.06;49.56
11017;BME280;54687;50.800;6.772;2023-03-30T11:29:31;60935.69;;;-144.06;50.03
11017;BME280;54687;50.800;6.772;2023-03-30T11:32:14;60977.63;;;-144.06;49.97
11017;BME280;54687;50.800;6.772;2023-03-30T11:34:52;60954.56;;;-144.06;50.17
11017;BME280;54687;50.800;6.772;2023-03-30T11:37:22;60950.38;;;-144.06;50.16
11017;BME280;54687;50.800;6.772;2023-03-30T11:39:58;60918.94;;;-144.06;51.08
11017;BME280;54687;50.800;6.772;2023-03-30T11:42:35;60948.28;;;-144.06;49.93
11017;BME280;54687;50.800;6.772;2023-03-30T11:45:16;60946.19;;;-144.06;48.95
11017;BME280;54687;50.800;6.772;2023-03-30T11:47:57;60948.28;;;-144.06;50.08
11017;BME280;54687;50.800;6.772;2023-03-30T11:50:39;60918.94;;;-144.06;49.21
11017;BME280;54687;50.800;6.772;2023-03-30T11:53:17;60967.13;;;-144.06;49.15
11017;BME280;54687;50.800;6.772;2023-03-30T11:56:01;60933.59;;;-144.06;49.41
11017;BME280;54687;50.800;6.772;2023-03-30T11:58:34;60933.59;;;-144.06;49.10
11017;BME280;54687;50.800;6.772;2023-03-30T12:01:21;60956.66;;;-144.06;48.87
11017;BME280;54687;50.800;6.772;2023-03-30T12:03:55;60941.97;;;-144.06;48.47
11017;BME280;54687;50.800;6.772;2023-03-30T12:06:28;60958.75;;;-144.06;48.12
11017;BME280;54687;50.800;6.772;2023-03-30T12:09:18;60893.78;;;-144.06;47.83
11017;BME280;54687;50.800;6.772;2023-03-30T12:11:50;60941.97;;;-144.06;48.45
11017;BME280;54687;50.800;6.772;2023-03-30T12:14:40;60925.22;;;-144.06;47.84
11017;BME280;54687;50.800;6.772;2023-03-30T12:17:25;60881.19;;;-144.06;47.05
11017;BME280;54687;50.800;6.772;2023-03-30T12:19:58;60925.22;;;-144.06;47.95
11017;BME280;54687;50.800;6.772;2023-03-30T12:22:33;60885.38;;;-144.06;45.74
11017;BME280;54687;50.800;6.772;2023-03-30T12:25:11;60849.75;;;-144.06;44.93
11017;BME280;54687;50.800;6.772;2023-03-30T12:30:41;60862.34;;;-144.06;43.09
11017;BME280;54687;50.800;6.772;2023-03-30T12:33:16;60801.53;;;-144.06;41.49
11017;BME280;54687;50.800;6.772;2023-03-30T12:36:00;60818.31;;;-144.06;41.36
11017;BME280;54687;50.800;6.772;2023-03-30T12:38:35;60805.75;;;-144.06;38.96
11017;BME280;54687;50.800;6.772;2023-03-30T12:41:07;60795.25;;;-144.06;40.26
11017;BME280;54687;50.800;6.772;2023-03-30T12:44:03;60801.53;;;-144.06;39.88
11017;BME280;54687;50.800;6.772;2023-03-30T12:46:43;60814.13;;;-144.06;40.48
11017;BME280;54687;50.800;6.772;2023-03-30T12:49:21;60835.09;;;-144.06;40.30
11017;BME280;54687;50.800;6.772;2023-03-30T12:51:58;60833.00;;;-144.06;40.77
11017;BME280;54687;50.800;6.772;2023-03-30T12:54:54;60816.22;;;-144.06;40.88
11017;BME280;54687;50.800;6.772;2023-03-30T12:57:35;60812.03;;;-144.06;40.22
11017;BME280;54687;50.800;6.772;2023-03-30T13:00:24;60797.34;;;-144.06;39.34
11017;BME280;54687;50.800;6.772;2023-03-30T13:03:03;60820.41;;;-144.06;39.63
11017;BME280;54687;50.800;6.772;2023-03-30T13:05:42;60778.50;;;-144.06;39.84